Time;durP1;ratioP1;P1;durP2;ratioP2;P2;SDS_P1;SDS_P2;PMS_P1;PMS_P2;Temp;Humidity;BMP_temperature;BMP_pressure;BME280_temperature;BME280_humidity;BME280_pressure;Samples;Min_cycle;Max_cycle;Signal;HPM_P1;HPM_P2
2022/07/25 00:00:05;;;;;;;3.67;3.37;;;27.80;50.90;;;;;;4962897;28;20456;-93
2022/07/25 00:02:34;;;;;;;3.20;3.00;;;27.80;50.90;;;;;;4956844;28;20563;-94
2022/07/25 00:05:05;;;;;;;3.23;3.03;;;27.80;51.00;;;;;;4960861;28;20523;-94
2022/07/25 00:07:33;;;;;;;3.23;3.00;;;27.80;51.00;;;;;;4953555;28;20479;-95
2022/07/25 00:10:07;;;;;;;3.20;3.00;;;27.80;51.00;;;;;;4969190;28;20446;-95
2022/07/25 00:12:36;;;;;;;3.27;3.07;;;27.80;51.00;;;;;;4961626;28;20482;-94
2022/07/25 00:15:06;;;;;;;3.53;3.00;;;27.80;51.00;;;;;;4958411;28;20470;-94
2022/07/25 00:17:48;;;;;;;3.87;3.57;;;27.80;50.90;;;;;;4960022;28;20470;-94
2022/07/25 00:20:21;;;;;;;4.10;3.63;;;27.80;51.00;;;;;;4954130;28;20452;-95
2022/07/25 00:22:52;;;;;;;3.40;3.13;;;27.80;51.00;;;;;;4963041;28;20461;-94
2022/07/25 00:25:21;;;;;;;3.67;3.47;;;27.80;50.90;;;;;;4960217;28;20434;-94
2022/07/25 00:27:50;;;;;;;3.77;3.47;;;27.70;50.80;;;;;;4971267;28;20466;-93
2022/07/25 00:30:18;;;;;;;3.73;3.43;;;27.80;51.00;;;;;;4966816;28;21046;-94
2022/07/25 00:32:47;;;;;;;3.07;2.87;;;27.80;51.00;;;;;;4972667;28;20462;-92
2022/07/25 00:35:19;;;;;;;3.63;3.33;;;27.80;50.90;;;;;;4965819;28;20548;-96
2022/07/25 00:37:48;;;;;;;2.80;2.60;;;27.80;51.00;;;;;;4965988;28;20461;-94
2022/07/25 00:40:16;;;;;;;3.47;3.20;;;27.70;50.90;;;;;;4960140;28;20448;-94
2022/07/25 00:42:45;;;;;;;2.70;2.50;;;27.70;51.00;;;;;;4960971;28;20472;-94
2022/07/25 00:45:13;;;;;;;3.40;2.97;;;27.80;51.00;;;;;;4959812;28;20466;-94
2022/07/25 00:47:42;;;;;;;3.17;2.97;;;27.80;51.10;;;;;;4967880;28;20472;-95
2022/07/25 00:50:11;;;;;;;3.37;3.10;;;27.80;51.10;;;;;;4963078;28;20451;-94
2022/07/25 00:52:41;;;;;;;4.13;3.73;;;27.80;50.90;;;;;;4970418;28;20470;-93
2022/07/25 00:55:11;;;;;;;3.83;2.70;;;27.80;50.90;;;;;;4970649;28;20452;-93
2022/07/25 00:57:39;;;;;;;3.63;3.37;;;27.80;50.90;;;;;;4960679;28;20492;-94
2022/07/25 01:00:13;;;;;;;4.23;3.90;;;27.80;50.70;;;;;;4960034;28;20948;-92
2022/07/25 01:02:42;;;;;;;3.67;3.47;;;27.80;50.70;;;;;;4965763;28;20465;-94
2022/07/25 01:05:15;;;;;;;4.37;4.07;;;27.80;50.60;;;;;;4967765;28;20447;-94
2022/07/25 01:07:51;;;;;;;4.50;4.20;;;27.80;50.20;;;;;;4963383;28;20473;-94
2022/07/25 01:10:20;;;;;;;3.77;3.47;;;27.80;50.10;;;;;;4962673;28;20500;-92
2022/07/25 01:12:54;;;;;;;4.10;3.80;;;27.70;49.80;;;;;;4955226;28;20503;-94
2022/07/25 01:15:28;;;;;;;4.03;3.73;;;27.80;49.70;;;;;;4962061;28;20945;-94
2022/07/25 01:18:00;;;;;;;4.07;3.80;;;27.80;49.30;;;;;;4957296;28;20473;-94
2022/07/25 01:20:45;;;;;;;3.70;3.40;;;27.70;49.20;;;;;;4962937;28;20462;-92
2022/07/25 01:23:15;;;;;;;3.63;3.40;;;27.70;49.00;;;;;;4940475;28;20532;-93
2022/07/25 01:25:50;;;;;;;3.53;3.23;;;27.80;49.20;;;;;;4974116;28;20436;-95
2022/07/25 01:28:19;;;;;;;4.60;4.20;;;27.70;49.10;;;;;;4947517;28;20525;-94
2022/07/25 01:30:48;;;;;;;3.60;3.30;;;27.70;48.90;;;;;;4964562;28;20528;-93
2022/07/25 01:33:20;;;;;;;3.20;3.00;;;27.70;48.80;;;;;;4963026;28;20481;-95
2022/07/25 01:35:50;;;;;;;4.30;4.00;;;27.70;48.60;;;;;;4965279;28;20462;-94
2022/07/25 01:38:24;;;;;;;3.57;3.27;;;27.70;48.40;;;;;;4974142;28;20461;-93
2022/07/25 01:40:53;;;;;;;4.00;3.47;;;27.70;48.50;;;;;;4959057;28;20928;-94
2022/07/25 01:43:22;;;;;;;3.77;3.47;;;27.70;48.30;;;;;;4948257;28;20478;-94
2022/07/25 01:46:00;;;;;;;;;;;;;;;;;;;;;
2022/07/25 01:48:33;;;;;;;4.70;4.30;;;27.70;48.60;;;;;;4965150;28;20465;-92
2022/07/25 01:51:09;;;;;;;3.70;3.40;;;27.70;48.50;;;;;;4962879;28;20457;-93
2022/07/25 01:53:38;;;;;;;3.63;3.33;;;27.70;48.40;;;;;;4962805;28;20466;-94
2022/07/25 01:56:07;;;;;;;3.90;3.67;;;27.70;48.30;;;;;;4975920;28;20472;-93
2022/07/25 01:58:38;;;;;;;3.93;3.63;;;27.80;48.20;;;;;;4963311;28;20482;-94
2022/07/25 02:01:06;;;;;;;3.90;3.60;;;27.70;48.30;;;;;;4959962;28;20445;-93
2022/07/25 02:03:35;;;;;;;4.00;3.70;;;27.70;48.40;;;;;;4971993;28;20470;-92
2022/07/25 02:06:07;;;;;;;3.80;3.60;;;27.70;48.10;;;;;;4959232;28;20455;-94
2022/07/25 02:08:36;;;;;;;4.00;3.70;;;27.70;48.10;;;;;;4968130;28;20520;-95
2022/07/25 02:11:05;;;;;;;3.50;3.30;;;27.70;48.00;;;;;;4965603;28;20452;-96
2022/07/25 02:13:34;;;;;;;4.30;4.00;;;27.80;48.30;;;;;;4973261;28;20482;-93
2022/07/25 02:16:02;;;;;;;4.10;3.80;;;27.70;48.00;;;;;;4963762;28;20470;-93
2022/07/25 02:18:35;;;;;;;3.67;3.47;;;27.70;47.70;;;;;;4966782;28;20462;-92
2022/07/25 02:21:06;;;;;;;4.30;4.00;;;27.70;47.60;;;;;;4965864;28;20447;-93
2022/07/25 02:23:43;;;;;;;3.83;3.53;;;27.70;47.50;;;;;;4973835;28;20469;-92
2022/07/25 02:26:12;;;;;;;3.97;3.67;;;27.70;47.50;;;;;;4984002;28;20437;-95
2022/07/25 02:28:43;;;;;;;4.43;3.77;;;27.70;47.40;;;;;;4964039;28;20478;-95
2022/07/25 02:31:14;;;;;;;4.50;4.10;;;27.70;48.60;;;;;;4976055;28;20449;-94
2022/07/25 02:33:53;;;;;;;3.83;3.53;;;27.70;47.50;;;;;;4970891;28;20470;-94
2022/07/25 02:36:22;;;;;;;4.10;3.80;;;27.70;47.60;;;;;;4966093;28;21046;-93
2022/07/25 02:38:54;;;;;;;4.30;4.00;;;27.70;47.50;;;;;;4960573;28;20549;-94
2022/07/25 02:41:23;;;;;;;4.40;4.10;;;27.70;47.40;;;;;;4960849;28;20449;-93
2022/07/25 02:43:51;;;;;;;4.10;3.70;;;27.70;47.30;;;;;;4967032;28;20474;-94
2022/07/25 02:46:20;;;;;;;4.20;3.90;;;27.70;47.40;;;;;;4973725;28;20841;-95
2022/07/25 02:48:49;;;;;;;4.00;3.60;;;27.70;47.50;;;;;;4956441;28;20476;-94
2022/07/25 02:51:20;;;;;;;4.07;3.77;;;27.70;47.30;;;;;;4977957;28;20860;-94
2022/07/25 02:53:50;;;;;;;3.60;3.40;;;27.70;47.40;;;;;;4962233;28;20463;-93
2022/07/25 02:56:27;;;;;;;4.07;3.73;;;27.70;47.60;;;;;;4973911;28;20457;-94
2022/07/25 02:58:59;;;;;;;4.13;3.70;;;27.70;47.50;;;;;;4964796;28;20594;-92
2022/07/25 03:01:27;;;;;;;3.80;3.50;;;27.70;47.50;;;;;;4967861;28;20447;-95
2022/07/25 03:03:56;;;;;;;4.20;3.90;;;27.70;47.40;;;;;;4952717;28;20478;-94
2022/07/25 03:06:29;;;;;;;3.80;3.50;;;27.70;47.50;;;;;;4957806;28;20475;-94
2022/07/25 03:09:05;;;;;;;4.30;4.00;;;27.70;47.60;;;;;;4969416;28;20477;-94
2022/07/25 03:11:38;;;;;;;4.30;4.00;;;27.70;47.50;;;;;;4971155;28;20496;-96
2022/07/25 03:14:11;;;;;;;3.97;3.60;;;27.70;47.40;;;;;;4965086;28;20457;-93
2022/07/25 03:16:46;;;;;;;4.00;3.70;;;27.70;47.30;;;;;;4969069;28;20542;-93
2022/07/25 03:19:18;;;;;;;3.80;3.50;;;27.70;47.50;;;;;;4961813;28;20445;-94
2022/07/25 03:21:49;;;;;;;3.90;3.70;;;27.70;47.50;;;;;;4965691;28;20458;-95
2022/07/25 03:24:19;;;;;;;3.83;3.53;;;27.70;47.20;;;;;;4947450;28;20549;-94
2022/07/25 03:26:54;;;;;;;3.80;3.50;;;27.70;47.60;;;;;;4954571;28;20423;-95
2022/07/25 03:29:25;;;;;;;4.10;3.80;;;27.60;47.20;;;;;;4955099;28;20473;-94
2022/07/25 03:32:00;;;;;;;3.90;3.60;;;27.70;47.60;;;;;;4949689;28;20440;-93
2022/07/25 03:34:30;;;;;;;4.20;3.90;;;27.60;47.60;;;;;;4954145;28;20545;-95
2022/07/25 03:37:08;;;;;;;3.70;3.50;;;27.70;47.10;;;;;;4948322;28;20546;-94
2022/07/25 03:39:45;;;;;;;4.40;4.10;;;27.70;47.20;;;;;;4956726;28;20942;-95
2022/07/25 03:42:16;;;;;;;4.23;3.93;;;27.70;47.10;;;;;;4961583;28;20475;-93
2022/07/25 03:44:48;;;;;;;4.20;3.90;;;27.70;47.50;;;;;;4953302;28;20973;-93
2022/07/25 03:47:19;;;;;;;4.30;3.90;;;27.70;47.60;;;;;;4950958;28;20467;-95
2022/07/25 03:49:51;;;;;;;4.17;3.87;;;27.60;47.40;;;;;;4948497;28;20501;-94
2022/07/25 03:52:20;;;;;;;3.77;3.47;;;27.70;47.30;;;;;;4956535;28;20462;-94
2022/07/25 03:54:57;;;;;;;3.67;3.40;;;27.70;47.50;;;;;;4964692;28;20437;-94
2022/07/25 03:57:31;;;;;;;3.30;3.10;;;27.60;47.00;;;;;;4963480;28;20470;-95
2022/07/25 04:00:00;;;;;;;3.50;3.20;;;27.60;47.00;;;;;;4953081;28;20448;-93
2022/07/25 04:02:36;;;;;;;4.17;3.87;;;27.60;47.20;;;;;;4958295;28;20478;-95
2022/07/25 04:05:14;;;;;;;3.50;3.20;;;27.70;47.50;;;;;;4956288;28;20450;-94
2022/07/25 04:07:51;;;;;;;3.93;3.53;;;27.60;47.10;;;;;;4957059;28;20451;-95
2022/07/25 04:10:19;;;;;;;3.20;3.00;;;27.60;47.20;;;;;;4995421;28;20484;-72
2022/07/25 04:12:48;;;;;;;3.47;3.27;;;27.60;46.90;;;;;;4995396;28;20466;-72
2022/07/25 04:15:16;;;;;;;3.67;3.37;;;27.60;47.20;;;;;;4999860;28;20500;-72
2022/07/25 04:17:44;;;;;;;3.83;3.60;;;27.60;47.40;;;;;;4967790;28;20501;-71
2022/07/25 04:20:13;;;;;;;3.80;3.57;;;27.60;47.10;;;;;;4990024;28;20469;-72
2022/07/25 04:22:41;;;;;;;4.23;3.83;;;27.60;47.00;;;;;;4993077;28;20461;-72
2022/07/25 04:25:14;;;;;;;4.20;3.90;;;27.60;47.20;;;;;;4991229;28;20430;-72
2022/07/25 04:27:43;;;;;;;3.77;3.47;;;27.60;47.40;;;;;;4996016;28;20473;-72
2022/07/25 04:30:13;;;;;;;4.30;4.00;;;27.60;47.10;;;;;;4995197;28;21039;-71
2022/07/25 04:32:52;;;;;;;4.10;3.70;;;27.60;47.30;;;;;;5003100;28;20465;-72
2022/07/25 04:35:20;;;;;;;3.70;3.40;;;27.60;47.30;;;;;;4998797;28;20472;-71
2022/07/25 04:37:48;;;;;;;3.63;3.33;;;27.60;46.90;;;;;;4995035;28;20473;-71
2022/07/25 04:40:17;;;;;;;3.90;3.60;;;27.60;47.00;;;;;;5002856;28;20461;-72
2022/07/25 04:42:45;;;;;;;4.13;3.77;;;27.60;47.20;;;;;;4990792;28;21062;-72
2022/07/25 04:45:14;;;;;;;4.10;3.80;;;27.60;47.00;;;;;;4994978;28;20444;-72
2022/07/25 04:47:45;;;;;;;4.20;3.90;;;27.60;47.20;;;;;;5011191;28;20461;-71
2022/07/25 04:50:13;;;;;;;3.70;3.40;;;27.60;47.50;;;;;;5002289;28;20461;-71
2022/07/25 04:52:41;;;;;;;3.80;3.33;;;27.60;47.70;;;;;;4995280;28;20461;-72
2022/07/25 04:55:10;;;;;;;3.57;3.33;;;27.60;47.70;;;;;;4997134;28;20496;-72
2022/07/25 04:57:38;;;;;;;3.67;3.40;;;27.60;48.00;;;;;;4991500;28;20478;-71
2022/07/25 05:00:08;;;;;;;4.03;3.73;;;27.60;47.90;;;;;;4991311;28;20462;-72
2022/07/25 05:02:38;;;;;;;3.50;3.20;;;27.60;47.50;;;;;;4991725;28;20472;-71
2022/07/25 05:05:08;;;;;;;4.60;4.20;;;27.60;47.60;;;;;;4998903;28;20450;-71
2022/07/25 05:07:49;;;;;;;4.23;3.83;;;27.60;47.60;;;;;;4989009;28;20461;-72
2022/07/25 05:10:17;;;;;;;4.70;4.40;;;27.60;47.50;;;;;;4996860;28;20969;-72
2022/07/25 05:12:45;;;;;;;4.77;4.37;;;27.60;47.20;;;;;;4990804;28;20489;-71
2022/07/25 05:15:13;;;;;;;4.33;4.03;;;27.60;47.20;;;;;;4996916;28;20854;-71
2022/07/25 05:17:43;;;;;;;4.80;4.50;;;27.60;47.00;;;;;;4994777;28;21037;-72
2022/07/25 05:20:11;;;;;;;4.60;4.30;;;27.60;47.20;;;;;;4983617;28;20520;-71
2022/07/25 05:22:40;;;;;;;4.30;3.90;;;27.60;47.20;;;;;;4998520;28;20465;-71
2022/07/25 05:25:09;;;;;;;4.20;3.90;;;27.60;47.20;;;;;;4999492;28;20441;-71
2022/07/25 05:27:37;;;;;;;4.13;3.83;;;27.60;47.40;;;;;;4988388;28;20896;-72
2022/07/25 05:30:07;;;;;;;3.63;3.33;;;27.60;47.20;;;;;;5000560;28;20504;-71
2022/07/25 05:32:35;;;;;;;3.87;3.57;;;27.60;47.20;;;;;;4995467;28;20524;-72
2022/07/25 05:35:06;;;;;;;4.93;4.63;;;27.60;47.20;;;;;;4994196;28;20582;-71
2022/07/25 05:37:35;;;;;;;4.80;4.40;;;27.60;47.40;;;;;;4994456;28;20523;-71
2022/07/25 05:40:05;;;;;;;4.33;4.03;;;27.60;47.60;;;;;;4996101;28;20457;-72
2022/07/25 05:42:33;;;;;;;4.53;4.13;;;27.60;47.30;;;;;;5003457;28;20477;-72
2022/07/25 05:45:01;;;;;;;4.23;3.93;;;27.50;47.40;;;;;;4994045;28;20438;-72
2022/07/25 05:47:29;;;;;;;4.37;4.07;;;27.50;47.50;;;;;;4995464;28;20462;-72
2022/07/25 05:49:58;;;;;;;4.53;4.13;;;27.60;47.60;;;;;;4996545;28;20532;-72
2022/07/25 05:52:27;;;;;;;4.23;3.87;;;27.60;47.60;;;;;;5013701;28;20469;-72
2022/07/25 05:54:55;;;;;;;4.30;4.00;;;27.60;47.60;;;;;;5005446;28;20488;-71
2022/07/25 05:57:23;;;;;;;4.80;4.30;;;27.60;47.90;;;;;;4999191;28;20453;-71
2022/07/25 05:59:51;;;;;;;4.67;4.27;;;27.60;47.80;;;;;;4988442;28;20486;-71
2022/07/25 06:02:19;;;;;;;4.30;4.00;;;27.60;47.60;;;;;;4994375;28;20529;-71
2022/07/25 06:04:47;;;;;;;5.17;4.77;;;27.60;47.50;;;;;;4993494;28;20448;-72
2022/07/25 06:07:15;;;;;;;4.93;4.53;;;27.60;47.20;;;;;;4994458;28;20504;-72
2022/07/25 06:09:45;;;;;;;6.90;4.00;;;27.60;47.40;;;;;;5003079;28;20469;-71
2022/07/25 06:12:13;;;;;;;4.50;4.20;;;27.60;47.50;;;;;;4990570;28;20493;-71
2022/07/25 06:14:42;;;;;;;4.50;4.20;;;27.60;47.70;;;;;;4988036;28;20446;-71
2022/07/25 06:17:10;;;;;;;4.60;4.20;;;27.50;47.50;;;;;;4990799;28;20469;-72
2022/07/25 06:19:38;;;;;;;4.70;4.40;;;27.60;47.30;;;;;;4988779;28;20565;-72
2022/07/25 06:22:08;;;;;;;4.53;4.13;;;27.60;47.40;;;;;;5005598;28;20486;-71
2022/07/25 06:24:36;;;;;;;4.03;3.83;;;27.60;48.60;;;;;;5006248;28;20499;-71
2022/07/25 06:27:07;;;;;;;5.27;4.77;;;27.50;47.40;;;;;;5001990;28;20469;-72
2022/07/25 06:29:35;;;;;;;4.73;4.30;;;27.60;47.30;;;;;;4993968;28;20434;-72
2022/07/25 06:32:03;;;;;;;4.60;4.30;;;27.60;47.20;;;;;;4993347;28;20504;-72
2022/07/25 06:34:31;;;;;;;5.40;5.00;;;27.60;47.40;;;;;;5005091;28;20452;-72
2022/07/25 06:36:59;;;;;;;4.90;4.50;;;27.60;47.40;;;;;;5001646;28;20438;-72
2022/07/25 06:39:28;;;;;;;4.67;4.27;;;27.60;47.60;;;;;;5000704;28;20562;-72
2022/07/25 06:41:58;;;;;;;4.67;4.27;;;27.60;47.60;;;;;;5012217;28;20437;-71
2022/07/25 06:44:35;;;;;;;4.20;3.90;;;27.50;47.60;;;;;;4991091;28;20468;-71
2022/07/25 06:47:04;;;;;;;5.13;4.73;;;27.50;47.70;;;;;;5007678;28;20461;-71
2022/07/25 06:49:32;;;;;;;4.00;3.70;;;27.60;47.90;;;;;;5008135;28;20923;-72
2022/07/25 06:52:00;;;;;;;4.47;4.07;;;27.60;47.80;;;;;;5001430;28;21072;-72
2022/07/25 06:54:28;;;;;;;4.30;3.90;;;27.60;47.80;;;;;;4997079;28;20920;-71
2022/07/25 06:56:56;;;;;;;5.60;5.10;;;27.50;48.00;;;;;;4993165;28;20446;-71
2022/07/25 06:59:25;;;;;;;4.20;3.80;;;27.60;47.90;;;;;;4985697;28;20862;-71
2022/07/25 07:01:54;;;;;;;5.40;3.90;;;27.60;47.80;;;;;;4990945;28;20919;-72
2022/07/25 07:04:22;;;;;;;5.78;5.28;;;27.50;47.90;;;;;;4974887;28;20437;-71
2022/07/25 07:06:50;;;;;;;3.90;3.60;;;27.60;47.80;;;;;;4989719;28;20195;-71
2022/07/25 07:09:18;;;;;;;5.50;5.10;;;27.50;47.90;;;;;;4986484;28;20493;-71
2022/07/25 07:11:46;;;;;;;5.00;4.60;;;27.50;47.80;;;;;;4985405;28;20446;-72
2022/07/25 07:14:14;;;;;;;5.17;4.67;;;27.50;48.10;;;;;;4983598;28;20497;-69
2022/07/25 07:16:42;;;;;;;5.10;4.70;;;27.50;47.50;;;;;;4977966;28;20442;-69
2022/07/25 07:19:13;;;;;;;6.90;4.90;;;27.50;47.20;;;;;;5020400;28;20481;-68
2022/07/25 07:21:42;;;;;;;5.97;5.47;;;27.50;46.90;;;;;;5010913;28;20477;-68
2022/07/25 07:24:10;;;;;;;7.20;6.50;;;27.50;45.60;;;;;;5007515;28;20464;-69
2022/07/25 07:26:51;;;;;;;5.63;5.13;;;27.50;46.10;;;;;;5013223;28;20847;-68
2022/07/25 07:29:19;;;;;;;6.60;6.00;;;27.50;46.00;;;;;;5011715;28;20511;-69
2022/07/25 07:31:48;;;;;;;5.73;5.33;;;27.50;45.90;;;;;;5017786;28;20474;-69
2022/07/25 07:34:18;;;;;;;5.50;5.10;;;27.50;46.10;;;;;;5012624;28;20980;-68
2022/07/25 07:36:46;;;;;;;5.90;5.40;;;27.50;46.40;;;;;;5012407;28;20483;-68
2022/07/25 07:39:15;;;;;;;6.70;6.10;;;27.50;46.40;;;;;;5016597;28;20467;-69
2022/07/25 07:41:43;;;;;;;7.13;6.00;;;27.50;46.10;;;;;;5016827;28;20516;-68
2022/07/25 07:44:11;;;;;;;6.33;5.80;;;27.50;46.20;;;;;;5011845;28;20545;-68
2022/07/25 07:46:39;;;;;;;6.17;5.67;;;27.50;45.90;;;;;;5012390;28;20519;-68
2022/07/25 07:49:07;;;;;;;6.30;5.67;;;27.50;45.50;;;;;;5019715;28;20468;-68
2022/07/25 07:51:38;;;;;;;6.37;5.80;;;27.50;45.80;;;;;;5030534;28;20436;-68
2022/07/25 07:56:51;;;;;;;8.20;7.40;;;27.50;45.80;;;;;;5016288;28;20559;-69
2022/07/25 07:59:19;;;;;;;7.37;6.77;;;27.50;45.20;;;;;;5011744;28;20465;-69
2022/07/25 08:01:47;;;;;;;6.30;5.80;;;27.50;45.90;;;;;;4989115;28;20502;-72
2022/07/25 08:04:16;;;;;;;6.50;5.90;;;27.50;46.80;;;;;;5022324;28;20439;-71
2022/07/25 08:06:45;;;;;;;4.80;4.50;;;27.50;46.90;;;;;;5019844;28;20468;-72
2022/07/25 08:09:13;;;;;;;5.50;5.10;;;27.50;47.20;;;;;;5003475;28;20515;-71
2022/07/25 08:11:41;;;;;;;5.20;4.80;;;27.50;47.20;;;;;;5020402;28;20424;-70
2022/07/25 08:14:09;;;;;;;6.60;6.00;;;27.50;47.40;;;;;;5011000;28;20433;-71
2022/07/25 08:16:37;;;;;;;6.33;5.83;;;27.50;47.10;;;;;;5012817;28;20476;-72
2022/07/25 08:19:06;;;;;;;6.90;6.20;;;27.50;47.30;;;;;;5019413;28;20512;-72
2022/07/25 08:21:34;;;;;;;5.73;5.17;;;27.40;47.20;;;;;;5011653;28;20851;-71
2022/07/25 08:24:04;;;;;;;5.43;5.03;;;27.50;47.50;;;;;;5009629;28;20812;-71
2022/07/25 08:26:35;;;;;;;6.43;5.93;;;27.40;47.50;;;;;;5018523;28;20972;-71
2022/07/25 08:29:04;;;;;;;6.07;5.63;;;27.40;47.60;;;;;;5013804;28;20465;-71
2022/07/25 08:31:46;;;;;;;6.60;6.00;;;27.50;47.80;;;;;;5011511;28;20453;-72
2022/07/25 08:34:14;;;;;;;5.90;5.30;;;27.40;47.80;;;;;;5015265;28;20801;-72
2022/07/25 08:36:43;;;;;;;5.60;5.10;;;27.40;47.90;;;;;;5019469;28;20996;-71
2022/07/25 08:39:14;;;;;;;6.20;5.60;;;27.40;47.90;;;;;;5016191;28;20460;-71
2022/07/25 08:41:43;;;;;;;5.10;4.70;;;27.40;48.00;;;;;;5016036;28;20433;-72
2022/07/25 08:44:13;;;;;;;6.40;5.80;;;27.40;48.00;;;;;;5007430;28;20480;-71
2022/07/25 08:46:42;;;;;;;6.33;5.73;;;27.40;48.00;;;;;;5019255;28;20452;-71
2022/07/25 08:49:11;;;;;;;5.40;4.90;;;27.40;48.10;;;;;;5005441;28;20456;-71
2022/07/25 08:51:40;;;;;;;5.50;5.00;;;27.40;48.30;;;;;;5019094;28;20445;-71
2022/07/25 08:54:09;;;;;;;5.77;5.27;;;27.40;48.30;;;;;;5011367;28;20460;-72
2022/07/25 08:56:39;;;;;;;5.33;4.93;;;27.40;48.30;;;;;;5011944;28;20918;-72
2022/07/25 08:59:08;;;;;;;5.60;5.10;;;27.40;48.20;;;;;;4997011;28;20463;-71
2022/07/25 09:01:39;;;;;;;5.47;4.97;;;27.40;48.30;;;;;;5018330;28;20467;-72
2022/07/25 09:04:08;;;;;;;5.33;4.93;;;27.40;48.40;;;;;;5012247;28;20515;-71
2022/07/25 09:06:37;;;;;;;5.20;4.70;;;27.40;48.40;;;;;;5010437;28;20449;-72
2022/07/25 09:09:07;;;;;;;5.80;5.40;;;27.40;48.50;;;;;;5021504;28;20472;-71
2022/07/25 09:11:37;;;;;;;6.33;5.40;;;27.40;48.50;;;;;;5025512;28;20425;-71
2022/07/25 09:14:08;;;;;;;5.73;5.33;;;27.40;48.50;;;;;;5013376;28;20529;-72
2022/07/25 09:16:39;;;;;;;6.37;5.90;;;27.40;48.50;;;;;;5015377;28;20436;-72
2022/07/25 09:19:10;;;;;;;5.37;4.97;;;27.40;48.30;;;;;;5011179;28;21065;-72
2022/07/25 09:21:39;;;;;;;5.33;4.90;;;27.40;48.40;;;;;;5019190;28;20477;-72
2022/07/25 09:24:10;;;;;;;5.23;4.87;;;27.40;48.30;;;;;;5011206;28;20445;-73
2022/07/25 09:26:46;;;;;;;5.70;5.20;;;27.40;48.40;;;;;;5012220;28;20425;-71
2022/07/25 09:29:23;;;;;;;6.00;5.50;;;27.40;48.60;;;;;;5014037;28;20808;-71
2022/07/25 09:31:52;;;;;;;4.87;4.53;;;27.40;48.60;;;;;;5019739;28;20442;-71
2022/07/25 09:34:37;;;;;;;5.87;5.47;;;27.40;48.60;;;;;;5010096;28;20445;-72
2022/07/25 09:37:07;;;;;;;6.50;5.90;;;27.40;48.70;;;;;;5010603;28;20519;-72
2022/07/25 09:39:38;;;;;;;5.57;5.07;;;27.40;48.60;;;;;;5011132;28;20652;-72
2022/07/25 09:42:24;;;;;;;5.47;5.03;;;27.40;48.70;;;;;;5023073;28;20494;-73
2022/07/25 09:45:06;;;;;;;5.70;5.20;;;27.40;48.80;;;;;;5015694;28;20449;-71
2022/07/25 09:47:37;;;;;;;6.00;5.27;;;27.40;48.70;;;;;;5022471;28;21034;-72
2022/07/25 09:50:07;;;;;;;5.53;5.10;;;27.40;49.00;;;;;;5020713;28;20465;-71
2022/07/25 09:52:36;;;;;;;5.20;4.80;;;27.40;48.80;;;;;;5025690;28;20460;-72
2022/07/25 09:55:08;;;;;;;5.20;4.90;;;27.40;49.00;;;;;;5014175;28;20915;-72
2022/07/25 09:57:36;;;;;;;5.90;5.40;;;27.40;49.00;;;;;;5015566;28;20543;-71
2022/07/25 10:00:08;;;;;;;6.03;5.53;;;27.40;48.90;;;;;;5006721;28;20470;-72
2022/07/25 10:02:46;;;;;;;5.53;5.03;;;27.40;48.90;;;;;;5010265;28;20463;-72
2022/07/25 10:05:19;;;;;;;5.87;5.37;;;27.40;49.00;;;;;;5010002;28;20953;-72
2022/07/25 10:07:49;;;;;;;5.80;5.30;;;27.40;49.00;;;;;;5021562;28;20982;-72
2022/07/25 10:10:28;;;;;;;5.80;5.40;;;27.40;48.90;;;;;;5022914;28;20428;-71
2022/07/25 10:13:01;;;;;;;5.87;5.40;;;27.30;49.00;;;;;;5010740;28;20461;-72
2022/07/25 10:15:43;;;;;;;4.83;4.43;;;27.40;49.10;;;;;;5022275;28;20941;-72
2022/07/25 10:18:12;;;;;;;4.97;4.50;;;27.30;49.30;;;;;;5013459;28;20530;-72
2022/07/25 10:20:40;;;;;;;4.90;4.50;;;27.30;49.50;;;;;;5016629;28;20469;-71
2022/07/25 10:23:20;;;;;;;5.20;4.80;;;27.40;49.70;;;;;;5022034;28;20487;-72
2022/07/25 10:26:00;;;;;;;4.87;4.47;;;27.30;49.80;;;;;;5017318;28;20803;-72
2022/07/25 10:28:37;;;;;;;5.30;4.90;;;27.30;49.70;;;;;;5011618;28;20484;-71
2022/07/25 10:31:21;;;;;;;5.53;5.10;;;27.30;49.50;;;;;;5020240;28;20433;-72
2022/07/25 10:33:52;;;;;;;5.33;4.90;;;27.30;49.50;;;;;;5016067;28;20518;-72
2022/07/25 10:36:22;;;;;;;6.13;5.53;;;27.30;49.40;;;;;;5013723;28;20483;-72
2022/07/25 10:38:53;;;;;;;5.83;5.33;;;27.30;49.40;;;;;;5013509;28;20534;-71
2022/07/25 10:41:25;;;;;;;5.90;5.30;;;27.30;49.40;;;;;;5008231;28;20503;-72
2022/07/25 10:43:59;;;;;;;4.83;4.47;;;27.30;49.40;;;;;;5015238;28;20468;-72
2022/07/25 10:46:31;;;;;;;5.20;4.80;;;27.30;49.00;;;;;;5020430;28;20434;-71
2022/07/25 10:49:04;;;;;;;4.77;4.40;;;27.30;49.10;;;;;;5015570;28;20989;-71
2022/07/25 10:51:35;;;;;;;5.23;4.83;;;27.30;48.80;;;;;;5017151;28;20441;-71
2022/07/25 10:54:15;;;;;;;6.00;5.50;;;27.40;49.00;;;;;;5013323;28;20507;-71
2022/07/25 10:56:55;;;;;;;4.70;4.40;;;27.30;48.60;;;;;;5022274;28;20443;-72
2022/07/25 10:59:28;;;;;;;5.20;4.80;;;27.40;48.70;;;;;;5009941;28;20476;-71
2022/07/25 11:01:58;;;;;;;5.20;4.80;;;27.30;48.60;;;;;;5021680;28;20468;-71
2022/07/25 11:04:26;;;;;;;4.97;4.57;;;27.30;48.60;;;;;;5019655;28;20977;-71
2022/07/25 11:06:54;;;;;;;4.30;4.00;;;27.30;48.80;;;;;;5013204;28;20943;-71
2022/07/25 11:09:24;;;;;;;5.20;4.80;;;27.30;48.70;;;;;;5028247;28;20488;-73
2022/07/25 11:11:56;;;;;;;5.70;5.20;;;27.30;48.50;;;;;;5020394;28;20536;-71
2022/07/25 11:14:29;;;;;;;4.60;4.23;;;27.30;48.50;;;;;;5013004;28;20433;-71
2022/07/25 11:17:14;;;;;;;5.80;5.33;;;27.30;48.30;;;;;;5014464;28;20436;-71
2022/07/25 11:19:45;;;;;;;4.70;4.30;;;27.30;48.20;;;;;;5016529;28;20457;-71
2022/07/25 11:22:13;;;;;;;4.63;4.23;;;27.40;48.40;;;;;;5009763;28;20503;-71
2022/07/25 11:24:42;;;;;;;5.13;4.73;;;27.30;48.40;;;;;;5013306;28;20867;-71
2022/07/25 11:27:12;;;;;;;4.90;4.40;;;27.30;48.20;;;;;;5019308;28;20448;-71
2022/07/25 11:29:41;;;;;;;3.93;3.63;;;27.30;48.30;;;;;;5014255;28;20472;-71
2022/07/25 11:32:12;;;;;;;4.77;4.47;;;27.30;48.50;;;;;;5013104;28;20850;-71
2022/07/25 11:34:42;;;;;;;4.53;4.20;;;27.40;48.50;;;;;;5020737;28;20429;-71
2022/07/25 11:37:12;;;;;;;4.20;3.90;;;27.40;48.60;;;;;;5020491;28;20461;-71
2022/07/25 11:39:45;;;;;;;4.60;4.30;;;27.40;48.60;;;;;;5013114;28;20988;-71
2022/07/25 11:42:15;;;;;;;5.33;4.90;;;27.40;48.50;;;;;;5014954;28;20460;-72
2022/07/25 11:44:45;;;;;;;5.10;4.70;;;27.40;48.30;;;;;;5012486;28;20496;-71
2022/07/25 11:47:25;;;;;;;5.17;4.77;;;27.40;48.10;;;;;;5011842;28;20826;-72
2022/07/25 11:49:55;;;;;;;4.60;4.20;;;27.40;48.20;;;;;;5018941;28;20468;-72
2022/07/25 11:52:26;;;;;;;5.30;4.90;;;27.40;48.40;;;;;;5012109;28;20448;-71
2022/07/25 11:54:56;;;;;;;4.60;4.20;;;27.40;48.30;;;;;;5012626;28;20498;-72
2022/07/25 11:57:25;;;;;;;4.43;4.13;;;27.40;48.40;;;;;;5017347;28;21158;-72
2022/07/25 11:59:54;;;;;;;4.43;4.03;;;27.40;48.60;;;;;;5013542;28;20479;-71
2022/07/25 12:02:26;;;;;;;5.20;4.80;;;27.40;48.60;;;;;;5011389;28;20531;-71
2022/07/25 12:04:56;;;;;;;4.87;4.37;;;27.40;48.40;;;;;;5010087;28;20503;-71
2022/07/25 12:07:36;;;;;;;4.63;4.27;;;27.40;48.60;;;;;;5017324;28;20526;-71
2022/07/25 12:10:06;;;;;;;4.37;4.00;;;27.40;48.50;;;;;;5019343;28;20463;-72
2022/07/25 12:12:45;;;;;;;4.80;4.40;;;27.40;48.40;;;;;;5007623;28;20970;-72
2022/07/25 12:15:14;;;;;;;3.90;3.60;;;27.40;48.50;;;;;;5014580;28;20917;-71
2022/07/25 12:17:43;;;;;;;3.87;3.57;;;27.40;48.30;;;;;;5023524;28;20514;-71
2022/07/25 12:20:15;;;;;;;5.97;4.40;;;27.40;48.50;;;;;;5020017;28;20448;-71
2022/07/25 12:22:43;;;;;;;4.10;3.70;;;27.40;48.40;;;;;;5019707;28;20533;-71
2022/07/25 12:25:12;;;;;;;4.20;3.90;;;27.40;48.50;;;;;;5008026;28;20428;-72
2022/07/25 12:27:41;;;;;;;4.20;3.90;;;27.40;48.40;;;;;;5021129;28;20452;-71
2022/07/25 12:30:10;;;;;;;3.97;3.67;;;27.40;48.40;;;;;;5015016;28;21138;-71
2022/07/25 12:32:39;;;;;;;4.00;3.70;;;27.40;48.30;;;;;;5014920;28;20473;-72
2022/07/25 12:35:10;;;;;;;5.40;3.93;;;27.40;48.40;;;;;;5014696;28;20476;-71
2022/07/25 12:37:40;;;;;;;3.80;3.50;;;27.40;48.50;;;;;;5007201;28;20636;-72
2022/07/25 12:40:09;;;;;;;5.03;4.03;;;27.40;48.50;;;;;;5011032;28;20544;-71
2022/07/25 12:42:37;;;;;;;3.70;3.40;;;27.40;48.60;;;;;;5013497;28;20469;-71
2022/07/25 12:45:07;;;;;;;4.70;4.30;;;27.40;48.50;;;;;;5011552;28;20480;-72
2022/07/25 12:47:35;;;;;;;3.40;3.20;;;27.40;48.60;;;;;;5012084;28;20503;-71
2022/07/25 12:50:05;;;;;;;4.20;3.90;;;27.40;48.70;;;;;;5011234;28;20477;-71
2022/07/25 12:52:36;;;;;;;3.90;3.60;;;27.40;48.70;;;;;;5010885;28;20890;-72
2022/07/25 12:55:05;;;;;;;4.63;4.30;;;27.50;48.90;;;;;;5019391;28;20441;-72
2022/07/25 12:57:35;;;;;;;3.97;3.67;;;27.50;48.80;;;;;;5010211;28;20469;-72
2022/07/25 13:00:06;;;;;;;4.53;4.13;;;27.50;48.70;;;;;;5010441;28;20540;-71
2022/07/25 13:02:34;;;;;;;4.17;3.87;;;27.50;48.70;;;;;;5009564;28;20472;-71
2022/07/25 13:05:02;;;;;;;4.43;4.03;;;27.50;50.00;;;;;;5009966;28;20455;-72
2022/07/25 13:07:31;;;;;;;3.50;3.20;;;27.50;48.80;;;;;;5010310;28;21780;-72